메인 페이지
METAR-TAF:

METAR-TAF

공항 :

두샨베, 타지키스탄

위도: 38-33N, 경도: 068-47E, 고도: 803m

현재 날씨관측

예보는 22분 전, 12:00시(UTC)에 발표되었습니다.
여러 방향의 바람 2kt
온도 38°C
습도 17%
기압 999 hPa
시정 10km 이상
고도 6600ft 상공 구름 조금

METAR: UTDD 251200Z VRB01MPS 9999 FEW066 38/09 Q0999 R09/D NOSIG RMK QFE682/0910

시각: 17:22 (12:22 UTC)

예보

예보는 1 시간 22분 전, 11:00시(UTC)에 발표되었습니다.
예보 대상 시간: 25일 12시부터 26일 12시까지 (UTC)
여러 방향의 바람 4kt
시정 10km 이상
고도 6600ft 상공 구름 조금
고도 10000ft 상공 구름 보통
일시적
25일 12시부터 25일 16시까지 (UTC)
14kt

TAF: UTDD 251100Z 2512/2612 VRB02MPS 9999 FEW066 SCT100 TEMPO 2512/2516 27007MPS

4,000개 이상의 공항 관측 자료 및 예보 (METAR 및 TAF 보고).

지도상에서 검색 가능한 기상관측소가 노란 점과 빨간 점으로 표시되어 있습니다.

기상관측소 명을 보려면 표시 위로 마우스를 이동하세요.

날씨 관측과 예보를 보려면 클릭하세요.

지도 변경 : 확대하려면 엑스 표시가 있는 녹색 버튼, 축소하려면 빼기 표시가 있는 녹색 버튼, 다음 페이지의 지도를 보려면 녹색 화살표를 클릭하세요.


METAR-TAF: